createdAt,value
2018-11-21T00:01:45.345Z,101092.23
2018-11-21T00:04:14.978Z,101090.89
2018-11-21T00:06:46.299Z,101085.58
2018-11-21T00:09:14.343Z,101087.51
2018-11-21T00:11:44.010Z,101086.47
2018-11-21T00:14:13.667Z,101083.61
2018-11-21T00:16:43.362Z,101076.83
2018-11-21T00:19:13.057Z,101077.09
2018-11-21T00:21:42.679Z,101074.48
2018-11-21T00:24:12.455Z,101074.98
2018-11-21T00:26:42.154Z,101077.89
2018-11-21T00:29:11.807Z,101075.24
2018-11-21T00:31:41.584Z,101079.16
2018-11-21T00:34:11.221Z,101083.86
2018-11-21T00:36:41.093Z,101095.90
2018-11-21T00:39:11.707Z,101091.15
2018-11-21T00:41:41.983Z,101092.37
2018-11-21T00:44:11.751Z,101092.95
2018-11-21T00:46:42.093Z,101102.43
2018-11-21T00:49:13.448Z,101103.02
2018-11-21T00:51:41.404Z,101100.41
2018-11-21T00:54:11.102Z,101102.38
2018-11-21T00:56:41.126Z,101119.42
2018-11-21T00:59:10.930Z,101110.72
2018-11-21T01:01:40.699Z,101110.05
2018-11-21T01:04:10.449Z,101122.63
2018-11-21T01:06:40.222Z,101121.75
2018-11-21T01:09:09.928Z,101123.08
2018-11-21T01:11:39.626Z,101122.23
2018-11-21T01:14:09.350Z,101120.80
2018-11-21T01:16:40.790Z,101125.09
2018-11-21T01:19:10.550Z,101126.80
2018-11-21T01:21:40.340Z,101124.71
2018-11-21T01:24:09.970Z,101129.41
2018-11-21T01:26:39.788Z,101126.34
2018-11-21T01:29:09.542Z,101125.75
2018-11-21T01:31:39.157Z,101114.52
2018-11-21T01:34:08.885Z,101117.44
2018-11-21T01:36:39.005Z,101115.45
2018-11-21T01:39:11.306Z,101113.36
2018-11-21T01:41:41.474Z,101113.11
2018-11-21T01:44:11.614Z,101114.36
2018-11-21T01:46:41.336Z,101118.52
2018-11-21T01:49:10.891Z,101123.73
2018-11-21T01:51:40.582Z,101121.50
2018-11-21T01:54:10.412Z,101118.47
2018-11-21T01:56:40.185Z,101122.39
2018-11-21T01:59:10.286Z,101112.89
2018-11-21T02:01:40.197Z,101119.12
2018-11-21T02:04:09.889Z,101118.55
2018-11-21T02:06:39.529Z,101119.05
2018-11-21T02:09:11.670Z,101117.22
2018-11-21T02:11:41.477Z,101120.62
2018-11-21T02:14:11.302Z,101124.38
2018-11-21T02:16:40.984Z,101118.03
2018-11-21T02:19:10.702Z,101120.31
2018-11-21T02:21:40.474Z,101121.98
2018-11-21T02:24:10.191Z,101127.63
2018-11-21T02:26:39.835Z,101127.63
2018-11-21T02:29:09.618Z,101118.53
2018-11-21T02:31:39.309Z,101124.25
2018-11-21T02:34:09.214Z,101125.75
2018-11-21T02:36:38.864Z,101128.12
2018-11-21T02:39:11.246Z,101123.49
2018-11-21T02:41:40.896Z,101128.25
2018-11-21T02:44:10.602Z,101128.25
2018-11-21T02:46:40.105Z,101129.41
2018-11-21T02:49:10.142Z,101132.64
2018-11-21T02:51:40.115Z,101129.05
2018-11-21T02:54:09.861Z,101132.55
2018-11-21T02:57:20.869Z,101132.55
2018-11-21T02:59:53.274Z,101128.22
2018-11-21T03:02:23.046Z,101133.53
2018-11-21T03:04:52.877Z,101134.83
2018-11-21T03:07:22.648Z,101125.66
2018-11-21T03:09:52.331Z,101136.23
2018-11-21T03:12:22.085Z,101136.60
2018-11-21T03:14:51.859Z,101144.09
2018-11-21T03:17:21.644Z,101147.50
2018-11-21T03:19:51.440Z,101138.19
2018-11-21T03:22:21.293Z,101144.79
2018-11-21T03:24:50.973Z,101139.67
2018-11-21T03:27:20.704Z,101142.64
2018-11-21T03:29:50.464Z,101138.75
2018-11-21T03:32:20.119Z,101144.59
2018-11-21T03:34:49.750Z,101141.06
2018-11-21T03:37:19.582Z,101145.95
2018-11-21T03:39:49.333Z,101140.74
2018-11-21T03:42:19.026Z,101142.09
2018-11-21T03:44:48.763Z,101148.56
2018-11-21T03:47:18.504Z,101143.48
2018-11-21T03:49:48.137Z,101148.61
2018-11-21T03:52:17.830Z,101147.50
2018-11-21T03:54:47.455Z,101141.45
2018-11-21T03:57:17.196Z,101152.88
2018-11-21T03:59:46.839Z,101151.48
2018-11-21T04:02:16.461Z,101150.28
2018-11-21T04:04:46.113Z,101153.73
2018-11-21T04:07:15.903Z,101163.45
2018-11-21T04:09:45.580Z,101155.78
2018-11-21T04:12:15.257Z,101160.07
2018-11-21T04:14:45.367Z,101156.15
2018-11-21T04:17:15.021Z,101163.80
2018-11-21T04:19:44.700Z,101160.01
2018-11-21T04:22:14.323Z,101160.43
2018-11-21T04:24:44.242Z,101158.66
2018-11-21T04:27:14.984Z,101158.09
2018-11-21T04:29:44.736Z,101152.71
2018-11-21T04:32:14.432Z,101155.45
2018-11-21T04:34:44.146Z,101157.31
2018-11-21T04:37:13.856Z,101161.80
2018-11-21T04:39:43.643Z,101160.30
2018-11-21T04:42:13.296Z,101163.45
2018-11-21T04:44:42.983Z,101161.22
2018-11-21T04:47:12.845Z,101155.77
2018-11-21T04:49:42.589Z,101158.05
2018-11-21T04:52:12.293Z,101157.08
2018-11-21T04:54:42.105Z,101164.61
2018-11-21T04:57:11.881Z,101161.34
2018-11-21T04:59:41.572Z,101163.59
2018-11-21T05:02:11.281Z,101168.89
2018-11-21T05:04:40.977Z,101168.94
2018-11-21T05:07:10.679Z,101176.82
2018-11-21T05:09:40.440Z,101173.47
2018-11-21T05:12:10.168Z,101181.66
2018-11-21T05:14:39.892Z,101188.28
2018-11-21T05:17:10.642Z,101183.25
2018-11-21T05:19:40.487Z,101185.15
2018-11-21T05:22:10.203Z,101185.48
2018-11-21T05:24:39.847Z,101191.12
2018-11-21T05:27:09.620Z,101192.59
2018-11-21T05:29:39.757Z,101191.30
2018-11-21T05:32:09.515Z,101194.37
2018-11-21T05:34:39.672Z,101190.04
2018-11-21T05:37:09.495Z,101202.63
2018-11-21T05:39:39.322Z,101202.41
2018-11-21T05:42:08.976Z,101209.61
2018-11-21T05:44:38.782Z,101213.36
2018-11-21T05:47:08.608Z,101219.24
2018-11-21T05:49:38.343Z,101223.33
2018-11-21T05:52:08.953Z,101229.25
2018-11-21T05:54:38.814Z,101239.12
2018-11-21T05:57:08.500Z,101241.05
2018-11-21T05:59:38.385Z,101238.64
2018-11-21T06:02:08.148Z,101242.97
2018-11-21T06:04:37.940Z,101242.29
2018-11-21T06:07:07.722Z,101241.47
2018-11-21T06:09:37.728Z,101240.95
2018-11-21T06:12:07.902Z,101246.53
2018-11-21T06:14:37.566Z,101249.39
2018-11-21T06:17:07.386Z,101250.81
2018-11-21T06:19:37.175Z,101244.70
2018-11-21T06:22:08.140Z,101249.50
2018-11-21T06:24:37.967Z,101249.19
2018-11-21T06:27:07.957Z,101254.19
2018-11-21T06:29:37.960Z,101248.61
2018-11-21T06:32:07.746Z,101257.33
2018-11-21T06:34:37.571Z,101257.69
2018-11-21T06:37:07.302Z,101256.53
2018-11-21T06:39:37.008Z,101264.47
2018-11-21T06:42:07.057Z,101264.89
2018-11-21T06:44:36.753Z,101259.31
2018-11-21T06:47:07.051Z,101262.52
2018-11-21T06:49:36.696Z,101261.17
2018-11-21T06:52:06.446Z,101270.09
2018-11-21T06:54:36.101Z,101272.34
2018-11-21T06:57:06.052Z,101279.20
2018-11-21T06:59:36.247Z,101282.81
2018-11-21T07:02:06.325Z,101282.39
2018-11-21T07:04:36.108Z,101292.45
2018-11-21T07:07:06.318Z,101291.05
2018-11-21T07:09:36.028Z,101299.43
2018-11-21T07:12:05.996Z,101299.73
2018-11-21T07:14:35.759Z,101296.09
2018-11-21T07:17:05.624Z,101294.17
2018-11-21T07:19:35.363Z,101300.12
2018-11-21T07:22:05.180Z,101301.64
2018-11-21T07:24:34.880Z,101301.37
2018-11-21T07:27:04.603Z,101311.63
2018-11-21T07:29:34.680Z,101319.81
2018-11-21T07:32:04.016Z,101319.81
2018-11-21T07:34:33.652Z,101320.18
2018-11-21T07:37:03.334Z,101322.32
2018-11-21T07:39:33.044Z,101327.83
2018-11-21T07:42:02.771Z,101332.21
2018-11-21T07:44:32.925Z,101332.99
2018-11-21T07:47:02.608Z,101330.19
2018-11-21T07:49:32.344Z,101337.28
2018-11-21T07:52:02.154Z,101328.39
2018-11-21T07:54:31.758Z,101329.84
2018-11-21T07:57:30.212Z,101328.23
2018-11-21T08:00:52.757Z,101339.91
2018-11-21T08:03:23.540Z,101341.05
2018-11-21T08:05:58.919Z,101339.02
2018-11-21T08:08:47.519Z,101339.63
2018-11-21T08:11:36.271Z,101334.97
2018-11-21T08:14:23.740Z,101342.31
2018-11-21T08:17:10.868Z,101338.61
2018-11-21T08:20:05.719Z,101353.00
2018-11-21T08:23:03.226Z,101351.74
2018-11-21T08:25:42.157Z,101352.66
2018-11-21T08:28:28.934Z,101356.49
2018-11-21T08:30:58.631Z,101354.56
2018-11-21T08:33:33.831Z,101357.88
2018-11-21T08:35:58.895Z,101359.42
2018-11-21T08:38:28.586Z,101349.15
2018-11-21T08:40:58.230Z,101351.83
2018-11-21T08:43:27.887Z,101364.58
2018-11-21T08:45:57.695Z,101361.95
2018-11-21T08:48:27.499Z,101373.52
2018-11-21T08:50:57.750Z,101373.32
2018-11-21T08:53:27.420Z,101388.79
2018-11-21T08:55:57.178Z,101388.82
2018-11-21T08:58:26.873Z,101391.50
2018-11-21T09:00:56.569Z,101386.11
2018-11-21T09:03:26.235Z,101392.03
2018-11-21T09:05:55.902Z,101397.50
2018-11-21T09:08:26.157Z,101394.89
2018-11-21T09:10:55.866Z,101404.06
2018-11-21T09:13:25.494Z,101396.04
2018-11-21T09:15:55.217Z,101409.30
2018-11-21T09:18:28.024Z,101406.01
2018-11-21T09:20:57.697Z,101407.31
2018-11-21T09:23:27.387Z,101411.64
2018-11-21T09:25:57.114Z,101415.61
2018-11-21T09:28:26.813Z,101410.86
2018-11-21T09:30:56.611Z,101416.70
2018-11-21T09:33:26.369Z,101420.52
2018-11-21T09:35:56.158Z,101423.44
2018-11-21T09:38:25.909Z,101420.83
2018-11-21T09:40:55.707Z,101425.84
2018-11-21T09:43:25.446Z,101421.14
2018-11-21T09:45:55.218Z,101423.55
2018-11-21T09:48:24.965Z,101423.13
2018-11-21T09:50:54.919Z,101422.97
2018-11-21T09:53:24.684Z,101426.05
2018-11-21T09:55:54.430Z,101427.56
2018-11-21T09:58:24.203Z,101423.37
2018-11-21T10:01:48.767Z,101424.78
2018-11-21T10:04:19.659Z,101422.13
2018-11-21T10:06:49.454Z,101419.53
2018-11-21T10:09:21.990Z,101423.21
2018-11-21T10:11:51.727Z,101428.27
2018-11-21T10:14:21.434Z,101424.91
2018-11-21T10:16:51.178Z,101429.86
2018-11-21T10:19:20.876Z,101426.47
2018-11-21T10:21:51.046Z,101430.80
2018-11-21T10:24:20.804Z,101417.63
2018-11-21T10:26:50.430Z,101422.12
2018-11-21T10:29:20.294Z,101424.73
2018-11-21T10:31:50.005Z,101414.97
2018-11-21T10:34:19.759Z,101419.78
2018-11-21T10:36:49.453Z,101410.95
2018-11-21T10:39:19.225Z,101415.19
2018-11-21T10:41:48.922Z,101416.47
2018-11-21T10:44:18.639Z,101412.41
2018-11-21T10:46:48.281Z,101413.03
2018-11-21T10:49:18.021Z,101409.30
2018-11-21T10:51:47.740Z,101414.78
2018-11-21T10:54:17.798Z,101422.10
2018-11-21T10:56:48.413Z,101418.93
2018-11-21T10:59:18.457Z,101425.28
2018-11-21T11:02:06.206Z,101422.97
2018-11-21T11:04:49.865Z,101424.94
2018-11-21T11:07:39.485Z,101421.02
2018-11-21T11:10:26.716Z,101412.39
2018-11-21T11:13:27.517Z,101419.48
2018-11-21T11:16:27.422Z,101418.52
2018-11-21T11:19:19.013Z,101417.95
2018-11-21T11:22:06.577Z,101423.22
2018-11-21T11:25:01.460Z,101426.63
2018-11-21T11:27:50.281Z,101425.92
2018-11-21T11:30:53.920Z,101431.45
2018-11-21T11:33:34.198Z,101417.55
2018-11-21T11:36:31.763Z,101416.03
2018-11-21T11:39:18.933Z,101418.62
2018-11-21T11:42:19.627Z,101422.88
2018-11-21T11:45:07.109Z,101435.31
2018-11-21T11:48:09.967Z,101428.64
2018-11-21T11:50:57.397Z,101431.57
2018-11-21T11:53:45.015Z,101436.63
2018-11-21T11:56:51.839Z,101433.05
2018-11-21T11:59:52.617Z,101432.16
2018-11-21T12:02:59.488Z,101436.03
2018-11-21T12:05:46.711Z,101435.86
2018-11-21T12:08:53.714Z,101430.58
2018-11-21T12:11:51.541Z,101436.63
2018-11-21T12:14:52.167Z,101435.23
2018-11-21T12:17:59.319Z,101431.48
2018-11-21T12:21:05.996Z,101430.73
2018-11-21T12:23:54.722Z,101441.23
2018-11-21T12:26:32.779Z,101431.83
2018-11-21T12:29:09.512Z,101427.13
2018-11-21T12:31:56.760Z,101426.11
2018-11-21T12:34:51.009Z,101423.06
2018-11-21T12:37:38.599Z,101419.89
2018-11-21T12:40:28.151Z,101418.80
2018-11-21T12:43:16.841Z,101425.46
2018-11-21T12:46:04.108Z,101423.06
2018-11-21T12:48:51.202Z,101422.97
2018-11-21T12:51:45.515Z,101425.21
2018-11-21T12:54:39.813Z,101422.02
2018-11-21T12:57:28.281Z,101419.69
2018-11-21T13:00:21.826Z,101417.90
2018-11-21T13:03:05.451Z,101417.33
2018-11-21T13:05:54.476Z,101424.88
2018-11-21T13:08:43.109Z,101416.59
2018-11-21T13:11:40.872Z,101422.59
2018-11-21T13:14:20.821Z,101420.53
2018-11-21T13:17:09.458Z,101416.89
2018-11-21T13:19:49.455Z,101426.52
2018-11-21T13:22:36.510Z,101422.02
2018-11-21T13:25:28.786Z,101431.31
2018-11-21T13:28:16.612Z,101435.12
2018-11-21T13:31:05.165Z,101420.63
2018-11-21T13:33:52.604Z,101429.02
2018-11-21T13:36:50.188Z,101429.08
2018-11-21T13:39:47.528Z,101429.52
2018-11-21T13:42:42.422Z,101428.17
2018-11-21T13:45:31.053Z,101430.89
2018-11-21T13:48:22.694Z,101433.09
2018-11-21T13:51:10.124Z,101431.31
2018-11-21T13:54:10.740Z,101436.65
2018-11-21T13:56:40.516Z,101438.94
2018-11-21T13:59:10.210Z,101445.30
2018-11-21T14:01:39.857Z,101453.50
2018-11-21T14:04:09.496Z,101457.14
2018-11-21T14:06:39.723Z,101456.11
2018-11-21T14:09:12.287Z,101456.05
2018-11-21T14:11:41.964Z,101455.73
2018-11-21T14:14:11.728Z,101457.72
2018-11-21T14:16:41.370Z,101456.16
2018-11-21T14:19:11.122Z,101456.73
2018-11-21T14:21:40.797Z,101460.12
2018-11-21T14:24:10.502Z,101458.40
2018-11-21T14:26:40.194Z,101461.27
2018-11-21T14:29:09.916Z,101457.19
2018-11-21T14:31:39.594Z,101457.92
2018-11-21T14:34:09.337Z,101462.74
2018-11-21T14:36:38.957Z,101456.99
2018-11-21T14:39:12.443Z,101458.30
2018-11-21T14:41:43.195Z,101460.55
2018-11-21T14:44:12.914Z,101456.72
2018-11-21T14:46:46.373Z,101469.93
2018-11-21T14:49:14.830Z,101465.09
2018-11-21T14:51:44.539Z,101468.09
2018-11-21T14:54:14.245Z,101470.23
2018-11-21T14:56:43.942Z,101475.66
2018-11-21T14:59:13.756Z,101473.58
2018-11-21T15:01:43.528Z,101479.07
2018-11-21T15:04:13.257Z,101474.27
2018-11-21T15:06:43.026Z,101477.34
2018-11-21T15:09:13.614Z,101473.78
2018-11-21T15:11:43.753Z,101472.90
2018-11-21T15:14:13.431Z,101485.69
2018-11-21T15:16:43.126Z,101485.98
2018-11-21T15:19:12.829Z,101478.94
2018-11-21T15:21:42.455Z,101485.95
2018-11-21T15:24:12.116Z,101487.90
2018-11-21T15:26:41.768Z,101488.21
2018-11-21T15:29:11.515Z,101490.27
2018-11-21T15:31:41.335Z,101496.78
2018-11-21T15:34:11.051Z,101493.70
2018-11-21T15:36:40.952Z,101502.02
2018-11-21T15:39:12.170Z,101503.86
2018-11-21T15:41:42.083Z,101508.45
2018-11-21T15:44:11.828Z,101503.59
2018-11-21T15:46:45.664Z,101508.45
2018-11-21T15:49:11.267Z,101509.98
2018-11-21T15:51:41.476Z,101508.99
2018-11-21T15:54:11.146Z,101505.38
2018-11-21T15:56:40.935Z,101510.64
2018-11-21T15:59:10.643Z,101508.66
2018-11-21T16:01:40.480Z,101515.70
2018-11-21T16:04:10.496Z,101515.83
2018-11-21T16:06:40.884Z,101513.25
2018-11-21T16:09:12.576Z,101520.19
2018-11-21T16:11:42.655Z,101525.25
2018-11-21T16:14:12.784Z,101534.51
2018-11-21T16:16:43.721Z,101534.44
2018-11-21T16:19:13.743Z,101533.15
2018-11-21T16:21:43.673Z,101538.47
2018-11-21T16:24:14.287Z,101535.45
2018-11-21T16:26:44.167Z,101539.95
2018-11-21T16:29:13.914Z,101542.75
2018-11-21T16:31:43.751Z,101551.28
2018-11-21T16:34:15.479Z,101553.98
2018-11-21T16:37:06.287Z,101560.40
2018-11-21T16:39:36.811Z,101558.38
2018-11-21T16:42:06.441Z,101565.79
2018-11-21T16:44:36.632Z,101569.59
2018-11-21T16:47:07.103Z,101561.70
2018-11-21T16:49:40.308Z,101569.05
2018-11-21T16:52:10.515Z,101567.52
2018-11-21T16:54:47.295Z,101562.36
2018-11-21T16:57:12.869Z,101555.08
2018-11-21T16:59:42.577Z,101563.91
2018-11-21T17:02:12.769Z,101563.47
2018-11-21T17:04:55.237Z,101553.30
2018-11-21T17:07:23.366Z,101559.33
2018-11-21T17:09:59.331Z,101562.87
2018-11-21T17:12:37.771Z,101555.19
2018-11-21T17:15:12.106Z,101566.27
2018-11-21T17:17:42.048Z,101560.44
2018-11-21T17:20:16.827Z,101561.86
2018-11-21T17:22:49.719Z,101561.05
2018-11-21T17:25:21.336Z,101563.58
2018-11-21T17:27:52.391Z,101561.22
2018-11-21T17:30:22.998Z,101557.66
2018-11-21T17:32:53.020Z,101565.84
2018-11-21T17:35:23.487Z,101561.69
2018-11-21T17:37:54.038Z,101568.20
2018-11-21T17:40:29.308Z,101564.90
2018-11-21T17:42:59.388Z,101566.09
2018-11-21T17:45:29.209Z,101568.87
2018-11-21T17:47:58.999Z,101571.00
2018-11-21T17:50:30.801Z,101568.03
2018-11-21T17:53:02.290Z,101559.33
2018-11-21T17:55:33.024Z,101565.84
2018-11-21T17:58:02.799Z,101568.39
2018-11-21T18:00:33.018Z,101564.02
2018-11-21T18:03:02.938Z,101570.28
2018-11-21T18:05:34.555Z,101570.00
2018-11-21T18:08:04.546Z,101576.69
2018-11-21T18:10:36.167Z,101573.97
2018-11-21T18:13:06.641Z,101572.02
2018-11-21T18:15:36.404Z,101577.52
2018-11-21T18:18:06.753Z,101577.12
2018-11-21T18:20:37.306Z,101577.64
2018-11-21T18:23:08.532Z,101580.20
2018-11-21T18:25:56.422Z,101580.84
2018-11-21T18:28:28.916Z,101581.15
2018-11-21T18:30:58.199Z,101583.88
2018-11-21T18:33:28.622Z,101577.88
2018-11-21T18:35:58.830Z,101584.04
2018-11-21T18:38:29.050Z,101581.56
2018-11-21T18:40:59.370Z,101582.84
2018-11-21T18:43:29.503Z,101579.67
2018-11-21T18:45:59.406Z,101587.83
2018-11-21T18:48:31.666Z,101581.14
2018-11-21T18:51:01.548Z,101587.19
2018-11-21T18:53:31.564Z,101583.92
2018-11-21T18:56:19.321Z,101588.53
2018-11-21T18:59:03.650Z,101588.65
2018-11-21T19:01:33.788Z,101585.63
2018-11-21T19:04:04.042Z,101591.44
2018-11-21T19:06:34.565Z,101597.44
2018-11-21T19:09:14.246Z,101594.11
2018-11-21T19:11:47.448Z,101586.53
2018-11-21T19:14:17.354Z,101585.40
2018-11-21T19:16:50.325Z,101595.11
2018-11-21T19:28:37.731Z,101418.53
2018-11-21T19:31:17.727Z,101602.50
2018-11-21T19:33:46.661Z,101605.58
2018-11-21T19:37:03.638Z,101612.09
2018-11-21T19:38:53.883Z,101600.73
2018-11-21T19:41:42.586Z,101608.78
2018-11-21T19:49:48.110Z,101440.41
2018-11-21T19:52:25.311Z,101614.55
2018-11-21T19:55:17.902Z,101618.79
2018-11-21T19:57:44.537Z,101622.42
2018-11-21T20:00:20.599Z,101616.89
2018-11-21T20:02:50.469Z,101618.50
2018-11-21T20:05:20.362Z,101624.99
2018-11-21T20:07:50.109Z,101626.50
2018-11-21T20:10:20.561Z,101623.11
2018-11-21T20:12:50.596Z,101628.00
2018-11-21T20:15:21.776Z,101621.53
2018-11-21T20:17:53.425Z,101623.00
2018-11-21T20:20:25.023Z,101619.50
2018-11-21T20:22:55.127Z,101620.34
2018-11-21T20:25:25.762Z,101629.66
2018-11-21T20:27:56.078Z,101629.52
2018-11-21T20:30:32.232Z,101624.30
2018-11-21T20:33:02.317Z,101624.99
2018-11-21T20:35:32.406Z,101625.30
2018-11-21T20:38:02.529Z,101628.69
2018-11-21T20:40:34.121Z,101630.46
2018-11-21T20:43:04.567Z,101631.83
2018-11-21T20:45:34.651Z,101622.64
2018-11-21T20:48:04.722Z,101627.38
2018-11-21T20:50:34.594Z,101633.27
2018-11-21T20:53:04.544Z,101636.59
2018-11-21T20:55:35.061Z,101632.80
2018-11-21T20:58:04.972Z,101632.27
2018-11-21T21:00:34.779Z,101638.75
2018-11-21T21:05:34.581Z,101636.23
2018-11-21T21:08:04.350Z,101626.16
2018-11-21T21:10:34.300Z,101624.20
2018-11-21T21:13:03.737Z,101623.42
2018-11-21T21:15:33.540Z,101624.34
2018-11-21T21:18:03.805Z,101620.02
2018-11-21T21:20:33.073Z,101620.64
2018-11-21T21:23:03.001Z,101621.48
2018-11-21T21:25:32.628Z,101611.30
2018-11-21T21:28:02.329Z,101623.56
2018-11-21T21:31:07.193Z,101619.87
2018-11-21T21:33:38.665Z,101617.63
2018-11-21T21:36:07.909Z,101621.13
2018-11-21T21:38:37.458Z,101619.46
2018-11-21T21:41:07.088Z,101616.85
2018-11-21T21:43:36.835Z,101618.23
2018-11-21T21:46:09.165Z,101619.55
2018-11-21T21:48:37.357Z,101624.34
2018-11-21T21:51:07.633Z,101628.19
2018-11-21T21:53:37.796Z,101632.75
2018-11-21T21:56:07.473Z,101632.55
2018-11-21T21:58:37.705Z,101632.33
2018-11-21T22:01:07.464Z,101640.92
2018-11-21T22:06:41.268Z,101633.30
2018-11-21T22:09:12.265Z,101639.10
2018-11-21T22:11:42.300Z,101633.63
2018-11-21T22:14:13.373Z,101638.41
2018-11-21T22:16:42.197Z,101644.95
2018-11-21T22:19:11.534Z,101641.93
2018-11-21T22:21:41.080Z,101638.74
2018-11-21T22:24:10.644Z,101633.53
2018-11-21T22:26:40.152Z,101632.77
2018-11-21T22:29:09.768Z,101633.11
2018-11-21T22:31:41.082Z,101638.19
2018-11-21T22:34:10.528Z,101643.03
2018-11-21T22:36:40.604Z,101643.45
2018-11-21T22:39:13.760Z,101639.83
2018-11-21T22:41:43.275Z,101642.27
2018-11-21T22:44:12.899Z,101639.77
2018-11-21T22:46:42.504Z,101640.71
2018-11-21T22:49:12.125Z,101646.89
2018-11-21T22:51:42.111Z,101645.81
2018-11-21T22:54:11.476Z,101648.84
2018-11-21T22:56:41.532Z,101648.31
2018-11-21T22:59:11.116Z,101649.42
2018-11-21T23:01:41.566Z,101646.53
2018-11-21T23:04:11.009Z,101645.59
2018-11-21T23:06:40.516Z,101641.27
2018-11-21T23:09:11.529Z,101640.37
2018-11-21T23:11:41.721Z,101638.58
2018-11-21T23:14:11.108Z,101633.25
2018-11-21T23:16:40.565Z,101640.66
2018-11-21T23:19:10.060Z,101631.22
2018-11-21T23:21:39.551Z,101633.77
2018-11-21T23:24:09.455Z,101637.52
2018-11-21T23:26:39.360Z,101631.58
2018-11-21T23:29:09.142Z,101629.75
2018-11-21T23:31:39.172Z,101635.44
2018-11-21T23:34:09.544Z,101646.53
2018-11-21T23:36:38.923Z,101642.56
2018-11-21T23:39:10.308Z,101645.59
2018-11-21T23:41:40.336Z,101643.70
2018-11-21T23:44:09.801Z,101641.09
2018-11-21T23:46:39.723Z,101644.09
2018-11-21T23:49:09.183Z,101638.29
2018-11-21T23:51:39.149Z,101640.01
2018-11-21T23:54:13.206Z,101638.05
2018-11-21T23:56:43.050Z,101641.51
2018-11-21T23:59:12.920Z,101641.38
